createdAt,value
2023-02-23T00:01:54.224Z,54.10
2023-02-23T00:04:21.581Z,54.70
2023-02-23T00:06:48.396Z,57.50
2023-02-23T00:09:24.543Z,57.35
2023-02-23T00:11:53.457Z,55.13
2023-02-23T00:14:20.459Z,55.80
2023-02-23T00:16:47.602Z,54.88
2023-02-23T00:19:14.407Z,55.22
2023-02-23T00:21:41.890Z,54.58
2023-02-23T00:24:11.355Z,54.33
2023-02-23T00:26:39.803Z,55.08
2023-02-23T00:29:10.963Z,55.10
2023-02-23T00:31:38.693Z,55.47
2023-02-23T00:34:07.407Z,57.22
2023-02-23T00:36:35.679Z,58.10
2023-02-23T00:39:18.549Z,56.70
2023-02-23T00:41:46.608Z,58.33
2023-02-23T00:44:15.366Z,59.17
2023-02-23T00:46:43.733Z,57.03
2023-02-23T00:49:12.871Z,57.47
2023-02-23T00:51:39.710Z,57.30
2023-02-23T00:54:07.792Z,55.67
2023-02-23T00:56:34.979Z,56.97
2023-02-23T00:59:01.954Z,55.58
2023-02-23T01:01:29.095Z,56.60
2023-02-23T01:03:55.976Z,56.15
2023-02-23T01:06:23.159Z,57.13
2023-02-23T01:08:52.122Z,55.55
2023-02-23T01:11:21.605Z,57.38
2023-02-23T01:13:51.466Z,56.88
2023-02-23T01:16:20.388Z,54.47
2023-02-23T01:18:48.884Z,57.15
2023-02-23T01:21:37.533Z,58.42
2023-02-23T01:24:05.495Z,57.55
2023-02-23T01:26:35.258Z,56.55
2023-02-23T01:29:11.650Z,56.53
2023-02-23T01:31:41.499Z,58.72
2023-02-23T01:34:11.814Z,59.08
2023-02-23T01:36:41.117Z,63.70
2023-02-23T01:39:14.447Z,63.13
2023-02-23T01:41:42.412Z,61.85
2023-02-23T01:44:31.864Z,62.17
2023-02-23T01:46:58.678Z,62.15
2023-02-23T01:49:30.695Z,63.03
2023-02-23T01:52:06.748Z,65.10
2023-02-23T01:54:43.345Z,63.55
2023-02-23T01:57:14.472Z,63.45
2023-02-23T01:59:45.487Z,62.72
2023-02-23T02:02:13.713Z,65.03
2023-02-23T02:04:45.335Z,64.72
2023-02-23T02:07:28.201Z,67.43
2023-02-23T02:10:22.185Z,68.03
2023-02-23T02:12:56.197Z,64.72
2023-02-23T02:15:28.239Z,69.28
2023-02-23T02:18:23.682Z,66.95
2023-02-23T02:21:31.097Z,66.43
2023-02-23T02:24:33.643Z,64.18
2023-02-23T02:27:06.245Z,70.18
2023-02-23T02:29:47.641Z,68.65
2023-02-23T02:32:39.387Z,69.57
2023-02-23T02:35:54.124Z,69.60
2023-02-23T02:38:24.259Z,71.43
2023-02-23T02:41:05.495Z,70.95
2023-02-23T02:43:42.883Z,73.15
2023-02-23T02:46:19.689Z,69.28
2023-02-23T02:49:13.440Z,72.07
2023-02-23T02:51:49.281Z,71.20
2023-02-23T02:54:40.568Z,74.95
2023-02-23T02:57:09.395Z,73.53
2023-02-23T03:00:06.754Z,72.43
2023-02-23T03:02:55.643Z,73.32
2023-02-23T03:05:46.433Z,73.00
2023-02-23T03:08:39.256Z,73.43
2023-02-23T03:11:26.991Z,72.47
2023-02-23T03:14:21.134Z,71.75
2023-02-23T03:17:21.641Z,70.40
2023-02-23T03:20:15.808Z,68.95
2023-02-23T03:23:18.639Z,70.65
2023-02-23T03:26:15.190Z,65.80
2023-02-23T03:32:13.548Z,66.72
2023-02-23T03:35:05.346Z,69.20
2023-02-23T03:38:00.328Z,71.18
2023-02-23T03:40:51.542Z,70.78
2023-02-23T03:43:46.744Z,66.78
2023-02-23T03:46:35.276Z,69.25
2023-02-23T03:49:24.822Z,68.43
2023-02-23T03:52:17.214Z,68.00
2023-02-23T03:55:13.141Z,67.88
2023-02-23T03:58:00.845Z,66.53
2023-02-23T04:00:53.412Z,67.60
2023-02-23T04:03:40.369Z,67.97
2023-02-23T04:06:29.745Z,66.10
2023-02-23T04:09:18.288Z,68.70
2023-02-23T04:12:17.690Z,68.50
2023-02-23T04:14:54.710Z,66.05
2023-02-23T04:17:25.395Z,67.93
2023-02-23T04:19:53.875Z,66.50
2023-02-23T04:22:21.581Z,65.68
2023-02-23T04:24:49.108Z,68.72
2023-02-23T04:27:16.187Z,68.90
2023-02-23T04:29:43.524Z,72.85
2023-02-23T04:32:15.501Z,71.63
2023-02-23T04:34:43.583Z,72.55
2023-02-23T04:37:12.167Z,71.72
2023-02-23T04:39:39.043Z,73.22
2023-02-23T04:42:05.846Z,71.25
2023-02-23T04:44:32.576Z,70.20
2023-02-23T04:46:59.348Z,70.63
2023-02-23T04:49:26.209Z,75.18
2023-02-23T04:51:52.920Z,76.88
2023-02-23T04:54:19.621Z,75.55
2023-02-23T04:56:46.387Z,77.03
2023-02-23T04:59:13.351Z,75.93
2023-02-23T05:01:40.065Z,74.70
2023-02-23T05:04:06.830Z,77.05
2023-02-23T05:06:34.292Z,76.57
2023-02-23T05:09:01.773Z,75.18
2023-02-23T05:11:28.833Z,74.40
2023-02-23T05:13:56.454Z,75.07
2023-02-23T05:16:23.577Z,75.95
2023-02-23T05:18:50.632Z,77.90
2023-02-23T05:21:17.790Z,76.30
2023-02-23T05:23:45.141Z,76.78
2023-02-23T05:26:13.308Z,79.25
2023-02-23T05:28:41.988Z,75.82
2023-02-23T05:31:09.683Z,77.07
2023-02-23T05:33:42.904Z,81.72
2023-02-23T05:36:12.236Z,77.63
2023-02-23T05:38:39.735Z,79.45
2023-02-23T05:41:11.248Z,76.75
2023-02-23T05:43:38.344Z,78.00
2023-02-23T05:46:10.316Z,78.10
2023-02-23T05:48:37.842Z,76.35
2023-02-23T05:51:12.914Z,79.55
2023-02-23T05:53:40.268Z,79.75
2023-02-23T05:56:08.574Z,76.35
2023-02-23T05:58:35.409Z,80.45
2023-02-23T06:01:02.171Z,81.95
2023-02-23T06:03:28.896Z,80.70
2023-02-23T06:05:58.604Z,78.50
2023-02-23T06:08:26.597Z,78.75
2023-02-23T06:10:53.335Z,78.97
2023-02-23T06:13:21.340Z,81.03
2023-02-23T06:15:49.514Z,79.13
2023-02-23T06:18:17.525Z,79.85
2023-02-23T06:20:45.790Z,76.72
2023-02-23T06:23:13.043Z,77.30
2023-02-23T06:25:40.809Z,76.20
2023-02-23T06:28:08.905Z,77.88
2023-02-23T06:30:36.413Z,78.13
2023-02-23T06:33:03.599Z,82.05
2023-02-23T06:35:30.292Z,81.05
2023-02-23T06:37:57.212Z,80.57
2023-02-23T06:40:24.276Z,81.07
2023-02-23T06:42:51.519Z,81.28
2023-02-23T06:45:19.329Z,82.05
2023-02-23T06:47:47.158Z,83.15
2023-02-23T06:50:15.090Z,80.53
2023-02-23T06:52:42.142Z,84.68
2023-02-23T06:55:10.484Z,81.25
2023-02-23T06:57:38.951Z,82.00
2023-02-23T07:00:06.217Z,80.03
2023-02-23T07:02:33.016Z,80.13
2023-02-23T07:04:59.760Z,81.15
2023-02-23T07:07:26.495Z,81.25
2023-02-23T07:09:53.290Z,83.28
2023-02-23T07:12:21.058Z,81.57
2023-02-23T07:14:48.020Z,80.85
2023-02-23T07:17:14.700Z,83.10
2023-02-23T07:19:41.432Z,82.97
2023-02-23T07:22:08.152Z,79.22
2023-02-23T07:24:34.938Z,80.25
2023-02-23T07:27:01.781Z,79.72
2023-02-23T07:29:28.691Z,81.82
2023-02-23T07:31:55.687Z,80.32
2023-02-23T07:34:22.565Z,83.15
2023-02-23T07:36:49.349Z,82.03
2023-02-23T07:39:16.241Z,81.60
2023-02-23T07:41:42.929Z,82.28
2023-02-23T07:44:09.724Z,79.90
2023-02-23T07:46:36.473Z,77.55
2023-02-23T07:49:03.392Z,81.47
2023-02-23T07:51:30.164Z,79.45
2023-02-23T07:53:56.893Z,85.07
2023-02-23T07:56:23.589Z,81.13
2023-02-23T07:58:50.274Z,82.13
2023-02-23T08:01:17.231Z,79.72
2023-02-23T08:03:49.537Z,79.53
2023-02-23T08:06:18.241Z,81.10
2023-02-23T08:08:45.262Z,78.80
2023-02-23T08:11:12.038Z,79.18
2023-02-23T08:13:39.032Z,80.13
2023-02-23T08:16:06.063Z,80.32
2023-02-23T08:18:33.251Z,78.78
2023-02-23T08:21:02.073Z,79.32
2023-02-23T08:23:33.195Z,74.53
2023-02-23T08:26:00.744Z,75.00
2023-02-23T08:28:28.871Z,73.10
2023-02-23T08:30:55.799Z,71.68
2023-02-23T08:33:23.136Z,71.57
2023-02-23T08:35:50.161Z,72.85
2023-02-23T08:38:18.328Z,72.80
2023-02-23T08:40:45.332Z,72.65
2023-02-23T08:43:12.195Z,74.75
2023-02-23T08:45:39.640Z,71.82
2023-02-23T08:48:07.653Z,72.20
2023-02-23T08:50:34.681Z,67.00
2023-02-23T08:53:01.460Z,70.88
2023-02-23T08:55:28.224Z,65.75
2023-02-23T08:57:54.947Z,67.38
2023-02-23T09:00:22.084Z,67.65
2023-02-23T09:02:48.912Z,65.63
2023-02-23T09:05:16.517Z,60.72
2023-02-23T09:07:47.197Z,64.15
2023-02-23T09:10:16.509Z,62.75
2023-02-23T09:12:43.586Z,58.97
2023-02-23T09:15:10.802Z,59.47
2023-02-23T09:17:38.006Z,62.63
2023-02-23T09:20:06.329Z,62.00
2023-02-23T09:22:36.760Z,64.18
2023-02-23T09:25:04.855Z,66.25
2023-02-23T09:27:31.626Z,69.13
2023-02-23T09:29:58.346Z,71.43
2023-02-23T09:32:25.195Z,69.70
2023-02-23T09:34:52.706Z,70.93
2023-02-23T09:37:19.392Z,68.55
2023-02-23T09:39:46.200Z,68.53
2023-02-23T09:42:49.250Z,67.40
2023-02-23T09:45:24.101Z,59.85
2023-02-23T09:48:03.175Z,56.33
2023-02-23T09:50:31.546Z,56.10
2023-02-23T09:53:03.941Z,55.28
2023-02-23T09:55:32.677Z,57.38
2023-02-23T09:58:16.155Z,54.22
2023-02-23T10:00:51.611Z,52.33
2023-02-23T10:05:54.625Z,55.25
2023-02-23T10:08:56.601Z,58.92
2023-02-23T10:12:07.385Z,52.40
2023-02-23T10:14:58.635Z,47.80
2023-02-23T10:17:55.493Z,46.95
2023-02-23T10:20:32.189Z,48.28
2023-02-23T10:23:05.654Z,51.83
2023-02-23T10:25:37.251Z,47.78
2023-02-23T10:28:04.271Z,53.60
2023-02-23T10:30:33.735Z,53.85
2023-02-23T10:33:36.732Z,55.38
2023-02-23T10:36:27.339Z,56.88
2023-02-23T10:38:54.050Z,54.38
2023-02-23T10:41:21.315Z,50.50
2023-02-23T10:43:48.331Z,48.17
2023-02-23T10:46:25.113Z,47.92
2023-02-23T10:48:55.885Z,44.75
2023-02-23T10:51:29.146Z,44.53
2023-02-23T10:54:01.190Z,43.63
2023-02-23T10:59:01.737Z,42.38
2023-02-23T11:02:00.926Z,38.53
2023-02-23T11:04:34.868Z,36.40
2023-02-23T11:07:18.113Z,35.08
2023-02-23T11:09:47.778Z,36.20
2023-02-23T11:12:39.573Z,38.22
2023-02-23T11:15:32.034Z,35.28
2023-02-23T11:20:36.204Z,34.78
2023-02-23T11:23:14.678Z,34.38
2023-02-23T11:25:44.067Z,33.75
2023-02-23T11:28:22.521Z,33.70
2023-02-23T11:30:50.076Z,32.97
2023-02-23T11:33:19.877Z,33.70
2023-02-23T11:35:46.667Z,33.45
2023-02-23T11:38:27.266Z,33.20
2023-02-23T11:41:19.051Z,29.10
2023-02-23T11:43:57.502Z,27.05
2023-02-23T11:46:26.177Z,25.23
2023-02-23T11:48:59.849Z,28.52
2023-02-23T11:51:31.801Z,32.13
2023-02-23T11:54:00.012Z,31.45
2023-02-23T11:56:29.088Z,35.13
2023-02-23T11:58:59.955Z,31.00
2023-02-23T12:01:44.532Z,31.70
2023-02-23T12:04:30.958Z,26.85
2023-02-23T12:07:54.746Z,26.88
2023-02-23T12:10:33.478Z,23.55
2023-02-23T12:13:31.618Z,25.67
2023-02-23T12:16:29.543Z,21.70
2023-02-23T12:19:24.514Z,22.13
2023-02-23T12:22:15.246Z,22.38
2023-02-23T12:25:02.868Z,22.38
2023-02-23T12:27:37.979Z,24.45
2023-02-23T12:30:12.214Z,22.70
2023-02-23T12:32:57.902Z,21.52
2023-02-23T12:35:49.691Z,20.95
2023-02-23T12:38:38.036Z,21.48
2023-02-23T12:41:14.135Z,19.75
2023-02-23T12:43:54.020Z,20.48
2023-02-23T12:46:40.529Z,20.42
2023-02-23T12:49:19.215Z,21.40
2023-02-23T12:52:14.861Z,21.45
2023-02-23T12:54:43.916Z,23.05
2023-02-23T12:57:20.224Z,20.85
2023-02-23T13:00:24.749Z,21.40
2023-02-23T13:03:10.778Z,23.15
2023-02-23T13:05:43.889Z,23.50
2023-02-23T13:08:26.943Z,23.80
2023-02-23T13:11:02.421Z,24.73
2023-02-23T13:16:18.392Z,22.02
2023-02-23T13:19:24.054Z,22.55
2023-02-23T13:22:21.132Z,23.20
2023-02-23T13:24:51.647Z,22.50
2023-02-23T13:27:26.910Z,24.50
2023-02-23T13:29:55.266Z,23.92
2023-02-23T13:32:25.370Z,24.48
2023-02-23T13:34:58.010Z,22.60
2023-02-23T13:37:32.172Z,24.27
2023-02-23T13:40:07.725Z,23.33
2023-02-23T13:45:26.216Z,23.42
2023-02-23T13:48:56.126Z,24.10
2023-02-23T13:51:30.719Z,21.10
2023-02-23T13:54:13.882Z,23.80
2023-02-23T13:57:02.034Z,22.80
2023-02-23T13:59:41.286Z,23.52
2023-02-23T14:02:41.077Z,23.65
2023-02-23T14:05:24.901Z,23.75
2023-02-23T14:07:56.002Z,22.98
2023-02-23T14:10:47.906Z,24.75
2023-02-23T14:13:15.778Z,23.08
2023-02-23T14:15:46.193Z,22.98
2023-02-23T14:18:19.293Z,23.60
2023-02-23T14:21:05.078Z,23.33
2023-02-23T14:23:56.446Z,23.65
2023-02-23T14:26:29.071Z,24.05
2023-02-23T14:29:14.505Z,24.08
2023-02-23T14:31:58.021Z,24.08
2023-02-23T14:34:49.117Z,24.17
2023-02-23T14:37:40.983Z,24.52
2023-02-23T14:40:18.111Z,24.77
2023-02-23T14:42:51.832Z,24.67
2023-02-23T14:45:38.762Z,24.88
2023-02-23T14:48:12.800Z,24.83
2023-02-23T14:50:41.409Z,24.30
2023-02-23T14:53:19.661Z,24.38
2023-02-23T14:55:46.498Z,26.58
2023-02-23T14:58:23.921Z,25.65
2023-02-23T15:00:52.021Z,24.73
2023-02-23T15:03:19.061Z,25.88
2023-02-23T15:05:55.155Z,25.33
2023-02-23T15:08:24.507Z,25.52
2023-02-23T15:11:04.443Z,27.00
2023-02-23T15:13:34.254Z,26.52
2023-02-23T15:16:12.768Z,25.48
2023-02-23T15:18:41.757Z,25.05
2023-02-23T15:21:12.515Z,24.85
2023-02-23T15:23:40.022Z,24.40
2023-02-23T15:26:27.153Z,25.10
2023-02-23T15:28:54.061Z,26.10
2023-02-23T15:31:21.132Z,25.40
2023-02-23T15:33:50.728Z,24.98
2023-02-23T15:36:39.091Z,26.67
2023-02-23T15:39:12.130Z,25.42
2023-02-23T15:41:40.056Z,26.73
2023-02-23T15:44:10.152Z,25.95
2023-02-23T15:46:37.820Z,25.25
2023-02-23T15:49:06.934Z,25.35
2023-02-23T15:51:38.215Z,26.00
2023-02-23T15:54:19.540Z,25.98
2023-02-23T15:56:49.964Z,26.00
2023-02-23T15:59:37.019Z,26.67
2023-02-23T16:02:17.920Z,24.63
2023-02-23T16:04:48.953Z,25.42
2023-02-23T16:07:15.626Z,25.38
2023-02-23T16:09:55.778Z,26.75
2023-02-23T16:12:32.713Z,27.02
2023-02-23T16:15:24.628Z,25.52
2023-02-23T16:18:01.116Z,24.92
2023-02-23T16:20:43.753Z,25.73
2023-02-23T16:23:33.374Z,25.40
2023-02-23T16:26:10.207Z,27.35
2023-02-23T16:28:42.749Z,26.38
2023-02-23T16:31:13.404Z,26.13
2023-02-23T16:33:45.418Z,25.83
2023-02-23T16:36:13.306Z,25.83
2023-02-23T16:38:39.994Z,26.65
2023-02-23T16:41:18.207Z,25.95
2023-02-23T16:43:48.452Z,26.63
2023-02-23T16:46:19.982Z,26.70
2023-02-23T16:48:46.929Z,26.55
2023-02-23T16:51:18.842Z,26.10
2023-02-23T16:53:46.369Z,26.38
2023-02-23T16:56:17.501Z,26.98
2023-02-23T16:58:48.301Z,25.73
2023-02-23T17:01:18.064Z,27.45
2023-02-23T17:03:52.735Z,27.73
2023-02-23T17:06:21.156Z,24.63
2023-02-23T17:08:57.376Z,28.42
2023-02-23T17:11:24.870Z,29.00
2023-02-23T17:13:51.526Z,28.13
2023-02-23T17:16:18.593Z,29.65
2023-02-23T17:18:46.780Z,30.50
2023-02-23T17:21:14.827Z,30.13
2023-02-23T17:23:51.284Z,30.88
2023-02-23T17:26:21.235Z,31.92
2023-02-23T17:28:48.611Z,33.33
2023-02-23T17:31:18.026Z,33.22
2023-02-23T17:33:46.148Z,32.67
2023-02-23T17:36:15.456Z,34.25
2023-02-23T17:38:44.757Z,34.00
2023-02-23T17:41:21.161Z,35.60
2023-02-23T17:43:48.138Z,34.70
2023-02-23T17:46:14.988Z,33.53
2023-02-23T17:48:44.738Z,34.60
2023-02-23T17:51:13.091Z,35.63
2023-02-23T17:53:40.433Z,36.67
2023-02-23T17:56:07.696Z,35.97
2023-02-23T17:58:34.680Z,35.60
2023-02-23T18:01:03.568Z,35.38
2023-02-23T18:03:33.294Z,36.35
2023-02-23T18:06:06.073Z,35.42
2023-02-23T18:08:33.647Z,38.20
2023-02-23T18:11:00.405Z,37.30
2023-02-23T18:13:29.016Z,35.90
2023-02-23T18:16:00.285Z,36.72
2023-02-23T18:18:28.963Z,37.20
2023-02-23T18:20:58.853Z,36.65
2023-02-23T18:23:28.825Z,37.25
2023-02-23T18:25:55.651Z,35.05
2023-02-23T18:28:22.481Z,35.53
2023-02-23T18:30:49.245Z,37.25
2023-02-23T18:33:15.990Z,36.70
2023-02-23T18:35:45.091Z,35.67
2023-02-23T18:38:13.965Z,35.22
2023-02-23T18:40:41.673Z,35.22
2023-02-23T18:43:09.031Z,34.70
2023-02-23T18:45:35.715Z,35.13
2023-02-23T18:48:02.663Z,36.17
2023-02-23T18:50:30.268Z,31.73
2023-02-23T18:52:58.956Z,33.17
2023-02-23T18:55:25.720Z,32.22
2023-02-23T18:57:55.383Z,32.45
2023-02-23T19:00:22.709Z,33.13
2023-02-23T19:02:49.645Z,31.77
2023-02-23T19:05:18.483Z,31.70
2023-02-23T19:07:46.345Z,31.60
2023-02-23T19:10:14.997Z,31.65
2023-02-23T19:12:42.276Z,31.13
2023-02-23T19:15:09.826Z,31.85
2023-02-23T19:17:36.707Z,32.45
2023-02-23T19:20:08.114Z,30.90
2023-02-23T19:22:35.242Z,30.08
2023-02-23T19:25:02.504Z,29.88
2023-02-23T19:27:29.348Z,28.95
2023-02-23T19:29:56.072Z,31.80
2023-02-23T19:32:22.900Z,30.73
2023-02-23T19:34:49.823Z,30.88
2023-02-23T19:37:16.483Z,30.90
2023-02-23T19:39:44.882Z,32.65
2023-02-23T19:42:15.717Z,32.03
2023-02-23T19:44:43.148Z,33.42
2023-02-23T19:47:09.946Z,32.80
2023-02-23T19:49:36.828Z,31.70
2023-02-23T19:52:03.630Z,32.08
2023-02-23T19:54:34.001Z,34.22
2023-02-23T19:57:00.805Z,33.92
2023-02-23T19:59:28.621Z,33.42
2023-02-23T20:01:55.462Z,33.67
2023-02-23T20:04:22.644Z,33.45
2023-02-23T20:06:49.343Z,33.33
2023-02-23T20:09:16.043Z,31.98
2023-02-23T20:11:42.803Z,34.40
2023-02-23T20:14:09.937Z,34.28
2023-02-23T20:16:36.855Z,33.70
2023-02-23T20:19:06.430Z,35.00
2023-02-23T20:21:33.788Z,34.15
2023-02-23T20:24:05.515Z,34.10
2023-02-23T20:26:35.426Z,33.70
2023-02-23T20:29:04.723Z,34.65
2023-02-23T20:31:35.066Z,34.42
2023-02-23T20:34:04.614Z,35.65
2023-02-23T20:36:32.277Z,34.13
2023-02-23T20:38:59.029Z,35.80
2023-02-23T20:41:28.062Z,36.10
2023-02-23T20:43:56.099Z,35.92
2023-02-23T20:46:23.025Z,35.58
2023-02-23T20:48:49.872Z,35.17
2023-02-23T20:51:19.086Z,39.22
2023-02-23T20:53:48.130Z,36.92
2023-02-23T20:56:17.457Z,36.83
2023-02-23T20:58:45.205Z,37.25
2023-02-23T21:01:27.203Z,37.75
2023-02-23T21:04:00.427Z,36.67
2023-02-23T21:06:28.966Z,38.10
2023-02-23T21:08:56.309Z,38.35
2023-02-23T21:11:25.356Z,37.78
2023-02-23T21:13:52.781Z,37.13
2023-02-23T21:16:20.614Z,37.15
2023-02-23T21:18:54.096Z,37.50
2023-02-23T21:21:21.358Z,37.88
2023-02-23T21:23:49.233Z,37.78
2023-02-23T21:26:17.035Z,37.28
2023-02-23T21:28:45.534Z,37.35
2023-02-23T21:31:14.806Z,37.25
2023-02-23T21:33:43.374Z,37.38
2023-02-23T21:36:11.117Z,37.42
2023-02-23T21:38:38.864Z,36.05
2023-02-23T21:41:06.196Z,39.88
2023-02-23T21:43:38.230Z,38.38
2023-02-23T21:46:14.179Z,39.53
2023-02-23T21:48:42.543Z,38.72
2023-02-23T21:51:12.559Z,40.00
2023-02-23T21:53:40.358Z,38.08
2023-02-23T21:56:15.911Z,38.38
2023-02-23T21:58:50.737Z,39.00
2023-02-23T22:01:20.748Z,36.85
2023-02-23T22:03:48.848Z,40.55
2023-02-23T22:06:18.356Z,39.97
2023-02-23T22:08:50.263Z,41.03
2023-02-23T22:11:21.187Z,39.65
2023-02-23T22:13:50.064Z,38.72
2023-02-23T22:16:19.491Z,39.67
2023-02-23T22:18:46.729Z,41.75
2023-02-23T22:21:13.967Z,40.15
2023-02-23T22:23:43.995Z,42.20
2023-02-23T22:26:11.122Z,42.00
2023-02-23T22:28:38.040Z,41.80
2023-02-23T22:31:11.019Z,41.47
2023-02-23T22:33:41.425Z,42.58
2023-02-23T22:36:10.545Z,43.90
2023-02-23T22:38:37.951Z,41.13
2023-02-23T22:41:11.807Z,42.15
2023-02-23T22:43:46.375Z,43.85
2023-02-23T22:46:14.912Z,43.13
2023-02-23T22:48:44.957Z,41.28
2023-02-23T22:51:13.719Z,43.72
2023-02-23T22:53:40.781Z,41.28
2023-02-23T22:56:08.504Z,42.90
2023-02-23T22:58:36.130Z,41.85
2023-02-23T23:01:06.071Z,43.50
2023-02-23T23:03:37.287Z,43.10
2023-02-23T23:06:06.265Z,44.42
2023-02-23T23:08:38.747Z,44.95
2023-02-23T23:11:13.738Z,42.65
2023-02-23T23:13:46.486Z,42.65
2023-02-23T23:16:30.286Z,42.53
2023-02-23T23:19:04.328Z,43.47
2023-02-23T23:21:34.142Z,43.60
2023-02-23T23:24:06.559Z,43.63
2023-02-23T23:26:35.784Z,42.80
2023-02-23T23:29:07.481Z,44.75
2023-02-23T23:31:35.598Z,43.22
2023-02-23T23:34:09.279Z,43.67
2023-02-23T23:36:46.432Z,43.72
2023-02-23T23:39:16.324Z,43.30
2023-02-23T23:41:44.358Z,43.42
2023-02-23T23:44:13.115Z,43.95
2023-02-23T23:46:45.144Z,45.83
2023-02-23T23:49:20.444Z,45.08
2023-02-23T23:51:50.564Z,45.30
2023-02-23T23:54:23.636Z,45.15
2023-02-23T23:56:50.719Z,45.45
2023-02-23T23:59:20.594Z,44.35
